Terminal Aerodrome Forecast
Issued by NWS

Home | Current Version | Previous Version | Text Only | Print | Product List | Glossary On
Versions: 1 2 3 4 5 6 7 8 9 10 11 12 13 14 15 16 17 18 19 20
000
FTUS43 KJKL 022100 AAB
TAFSJS
TAF AMD
KSJS 022141Z 0222/0318 25006KT P6SM VCTS BKN040CB
      TEMPO 0222/0224 VRB20G30KT 1SM TSRA BR BKN020CB OVC030
     FM030100 VRB03KT P6SM SCT050
     FM030700 00000KT 5SM BR FEW050
     FM030800 00000KT 1/4SM FG OVC002
     FM031300 00000KT 4SM HZ OVC007
     FM031400 00000KT P6SM OVC015
     FM031500 00000KT P6SM OVC050=

USA.gov is the U.S. government's official web portal to all federal, state and local government web resources and services.